Nuuk Skibakke/Sisorarfiit

KL  EN  DA
ASIAQ
Weather Now GREENLAND SURVEY
Updated [WGT/WGST] Temperature [°C] Wind [m/s] Air pressure [hPa] Relative humidity [%] Precipitation [mm]
Present Wind chill Speed Max
25.02 08:00-14,1-21,94,3 ⇐6,395960n/a
25.02 07:00-14,0-21,13,7 ⇐5,595963n/a
25.02 06:00-14,0-21,33,8 ⇐5,096067n/a
25.02 05:00-14,4-20,62,8 ⇐5,196073n/a
25.02 04:00-14,6-20,42,5 ⇐3,096073n/a
25.02 03:00-14,9-19,61,9 ⇐2,696085n/a
25.02 02:00-14,5-18,81,7 ⇙2,496089n/a
25.02 01:00-14,70,01,2 ⇙2,096088n/a
25.02 00:00-14,70,00,7 ⇒1,696083n/a
24.02 23:00-14,7-20,02,2 ⇒4,496084n/a
24.02 22:00-14,7-22,44,1 ⇒6,696081n/a
24.02 21:00-14,3-22,44,5 ⇒6,896074n/a
24.02 20:00-14,3-22,04,1 ⇒5,895982n/a
24.02 19:00-14,1-21,23,7 ⇒5,995975n/a
24.02 18:00-14,1-21,84,2 ⇒5,995882n/a
24.02 17:00-14,0-21,94,5 ⇒6,995882n/a
24.02 16:00-14,0-22,85,4 ⇒7,195787n/a
24.02 15:00-13,6-22,96,2 ⇒8,095691n/a
24.02 14:00-13,2-22,15,9 ⇒8,495592n/a
24.02 13:00-12,6-21,35,8 ⇒7,595593n/a
24.02 12:00-12,8-21,86,1 ⇘8,495493n/a
24.02 11:00-12,5-21,36,0 ⇘8,095394n/a
24.02 10:00-12,5-21,76,6 ⇘9,395394n/a
24.02 09:00-12,0-21,77,5 ⇘11,195294n/a
24.02 08:00-11,8-22,18,9 ⇘12,895192n/a
Position: (64.19036111,-51.64752778)

[Back]